Metar Aviation Weather Data KTRI Tri-Cities

45°F Temp
45°F Dewpoint
100% Humidity
Temperature
MPH
0 KM/H
KTS
Calm
Due North

Wind Speed
Misty
Conditions
Pressure 1017.5 (hPa) - 30.09 (in)
Visibility 6.0 (mi) - 9.7 (km)

Current Conditions
KTRI
Tri-Cities
Metar :KTRI 060953Z 00000KT 6SM BR OVC120 07/07 A3009 RMK AO2 SLP175 T00670067
Wed 6th February 05:53 am

Tri-Cities
  Metar Aviation API Data Provided by https://www.checkwx.com/ PHP scripts by weather34.com ©2019